sensor_id;sensor_type;location;lat;lon;timestamp;P1;durP1;ratioP1;P2;durP2;ratioP2
7519;SDS011;3801;48.876;10.184;2022-12-10T00:04:14;43.40;;;21.53;;
7519;SDS011;3801;48.876;10.184;2022-12-10T00:09:18;40.70;;;21.03;;
7519;SDS011;3801;48.876;10.184;2022-12-10T00:14:22;30.77;;;15.27;;
7519;SDS011;3801;48.876;10.184;2022-12-10T00:19:27;28.63;;;15.67;;
7519;SDS011;3801;48.876;10.184;2022-12-10T00:24:31;31.50;;;16.83;;
7519;SDS011;3801;48.876;10.184;2022-12-10T00:29:35;26.30;;;13.97;;
7519;SDS011;3801;48.876;10.184;2022-12-10T00:34:40;26.10;;;14.60;;
7519;SDS011;3801;48.876;10.184;2022-12-10T00:39:43;34.50;;;17.37;;
7519;SDS011;3801;48.876;10.184;2022-12-10T00:44:46;27.60;;;15.83;;
7519;SDS011;3801;48.876;10.184;2022-12-10T00:49:51;23.97;;;13.60;;
7519;SDS011;3801;48.876;10.184;2022-12-10T00:54:55;26.50;;;15.27;;
7519;SDS011;3801;48.876;10.184;2022-12-10T00:59:59;33.37;;;16.47;;
7519;SDS011;3801;48.876;10.184;2022-12-10T01:05:04;28.90;;;15.33;;
7519;SDS011;3801;48.876;10.184;2022-12-10T01:10:08;28.07;;;15.70;;
7519;SDS011;3801;48.876;10.184;2022-12-10T01:15:11;26.10;;;14.83;;
7519;SDS011;3801;48.876;10.184;2022-12-10T01:20:19;29.40;;;15.90;;
7519;SDS011;3801;48.876;10.184;2022-12-10T01:25:23;27.80;;;15.17;;
7519;SDS011;3801;48.876;10.184;2022-12-10T01:30:26;27.43;;;16.13;;
7519;SDS011;3801;48.876;10.184;2022-12-10T01:35:31;28.00;;;15.40;;
7519;SDS011;3801;48.876;10.184;2022-12-10T01:40:38;31.50;;;16.60;;
7519;SDS011;3801;48.876;10.184;2022-12-10T01:45:41;29.23;;;15.97;;
7519;SDS011;3801;48.876;10.184;2022-12-10T01:50:46;27.87;;;15.20;;
7519;SDS011;3801;48.876;10.184;2022-12-10T01:55:50;31.40;;;15.50;;
7519;SDS011;3801;48.876;10.184;2022-12-10T02:00:57;29.27;;;16.07;;
7519;SDS011;3801;48.876;10.184;2022-12-10T02:06:06;31.47;;;16.47;;
7519;SDS011;3801;48.876;10.184;2022-12-10T02:11:15;27.73;;;16.70;;
7519;SDS011;3801;48.876;10.184;2022-12-10T02:16:21;30.63;;;16.60;;
7519;SDS011;3801;48.876;10.184;2022-12-10T02:21:32;29.63;;;15.90;;
7519;SDS011;3801;48.876;10.184;2022-12-10T02:26:38;26.43;;;15.03;;
7519;SDS011;3801;48.876;10.184;2022-12-10T02:31:46;27.67;;;14.73;;
7519;SDS011;3801;48.876;10.184;2022-12-10T02:36:53;29.73;;;14.87;;
7519;SDS011;3801;48.876;10.184;2022-12-10T02:41:58;31.73;;;15.90;;
7519;SDS011;3801;48.876;10.184;2022-12-10T02:47:06;28.57;;;16.23;;
7519;SDS011;3801;48.876;10.184;2022-12-10T02:52:16;28.93;;;16.63;;
7519;SDS011;3801;48.876;10.184;2022-12-10T02:57:27;29.20;;;16.30;;
7519;SDS011;3801;48.876;10.184;2022-12-10T03:02:39;20.53;;;12.37;;
7519;SDS011;3801;48.876;10.184;2022-12-10T03:07:46;30.07;;;15.43;;
7519;SDS011;3801;48.876;10.184;2022-12-10T03:12:52;34.00;;;16.77;;
7519;SDS011;3801;48.876;10.184;2022-12-10T03:17:59;30.37;;;15.03;;
7519;SDS011;3801;48.876;10.184;2022-12-10T03:23:07;28.50;;;14.90;;
7519;SDS011;3801;48.876;10.184;2022-12-10T03:28:11;33.50;;;16.07;;
7519;SDS011;3801;48.876;10.184;2022-12-10T03:33:17;28.80;;;16.13;;
7519;SDS011;3801;48.876;10.184;2022-12-10T03:38:21;30.13;;;15.40;;
7519;SDS011;3801;48.876;10.184;2022-12-10T03:43:24;32.17;;;16.20;;
7519;SDS011;3801;48.876;10.184;2022-12-10T03:48:29;31.30;;;15.80;;
7519;SDS011;3801;48.876;10.184;2022-12-10T03:53:33;30.77;;;15.90;;
7519;SDS011;3801;48.876;10.184;2022-12-10T03:58:36;29.37;;;15.60;;
7519;SDS011;3801;48.876;10.184;2022-12-10T04:03:42;30.13;;;15.57;;
7519;SDS011;3801;48.876;10.184;2022-12-10T04:08:47;35.50;;;16.63;;
7519;SDS011;3801;48.876;10.184;2022-12-10T04:13:59;29.50;;;15.83;;
7519;SDS011;3801;48.876;10.184;2022-12-10T04:19:22;34.53;;;17.23;;
7519;SDS011;3801;48.876;10.184;2022-12-10T04:24:26;31.47;;;16.40;;
7519;SDS011;3801;48.876;10.184;2022-12-10T04:29:48;38.30;;;20.40;;
7519;SDS011;3801;48.876;10.184;2022-12-10T04:34:52;32.27;;;17.33;;
7519;SDS011;3801;48.876;10.184;2022-12-10T04:39:56;33.60;;;16.40;;
7519;SDS011;3801;48.876;10.184;2022-12-10T04:45:00;33.97;;;17.27;;
7519;SDS011;3801;48.876;10.184;2022-12-10T04:50:05;29.83;;;15.67;;
7519;SDS011;3801;48.876;10.184;2022-12-10T04:55:10;27.13;;;15.97;;
7519;SDS011;3801;48.876;10.184;2022-12-10T05:00:13;30.97;;;16.57;;
7519;SDS011;3801;48.876;10.184;2022-12-10T05:05:18;24.20;;;13.60;;
7519;SDS011;3801;48.876;10.184;2022-12-10T05:10:22;24.77;;;13.97;;
7519;SDS011;3801;48.876;10.184;2022-12-10T05:15:26;23.60;;;14.13;;
7519;SDS011;3801;48.876;10.184;2022-12-10T05:20:31;25.50;;;14.43;;
7519;SDS011;3801;48.876;10.184;2022-12-10T05:25:35;23.40;;;12.47;;
7519;SDS011;3801;48.876;10.184;2022-12-10T05:30:54;24.97;;;14.07;;
7519;SDS011;3801;48.876;10.184;2022-12-10T05:36:00;24.30;;;13.53;;
7519;SDS011;3801;48.876;10.184;2022-12-10T05:41:05;29.77;;;15.77;;
7519;SDS011;3801;48.876;10.184;2022-12-10T05:46:09;20.20;;;11.40;;
7519;SDS011;3801;48.876;10.184;2022-12-10T05:51:15;20.70;;;12.30;;
7519;SDS011;3801;48.876;10.184;2022-12-10T05:56:19;25.53;;;14.17;;
7519;SDS011;3801;48.876;10.184;2022-12-10T06:01:24;79.53;;;38.83;;
7519;SDS011;3801;48.876;10.184;2022-12-10T06:06:29;23.80;;;14.77;;
7519;SDS011;3801;48.876;10.184;2022-12-10T06:11:34;24.33;;;12.33;;
7519;SDS011;3801;48.876;10.184;2022-12-10T06:16:38;19.90;;;11.20;;
7519;SDS011;3801;48.876;10.184;2022-12-10T06:21:43;19.70;;;11.20;;
7519;SDS011;3801;48.876;10.184;2022-12-10T06:26:46;18.73;;;11.07;;
7519;SDS011;3801;48.876;10.184;2022-12-10T06:31:57;20.27;;;10.73;;
7519;SDS011;3801;48.876;10.184;2022-12-10T06:37:02;19.63;;;10.37;;
7519;SDS011;3801;48.876;10.184;2022-12-10T06:42:05;19.03;;;10.70;;
7519;SDS011;3801;48.876;10.184;2022-12-10T06:47:10;21.73;;;10.80;;
7519;SDS011;3801;48.876;10.184;2022-12-10T06:52:15;22.23;;;10.47;;
7519;SDS011;3801;48.876;10.184;2022-12-10T06:57:18;20.67;;;10.80;;
7519;SDS011;3801;48.876;10.184;2022-12-10T07:02:22;21.57;;;10.97;;
7519;SDS011;3801;48.876;10.184;2022-12-10T07:07:30;19.17;;;9.93;;
7519;SDS011;3801;48.876;10.184;2022-12-10T07:12:34;14.97;;;9.07;;
7519;SDS011;3801;48.876;10.184;2022-12-10T07:17:37;23.13;;;13.07;;
7519;SDS011;3801;48.876;10.184;2022-12-10T07:22:42;30.03;;;15.93;;
7519;SDS011;3801;48.876;10.184;2022-12-10T07:27:45;24.77;;;12.60;;
7519;SDS011;3801;48.876;10.184;2022-12-10T07:32:58;27.03;;;14.87;;
7519;SDS011;3801;48.876;10.184;2022-12-10T07:38:03;31.77;;;17.33;;
7519;SDS011;3801;48.876;10.184;2022-12-10T07:43:07;29.17;;;15.53;;
7519;SDS011;3801;48.876;10.184;2022-12-10T07:48:10;25.80;;;14.87;;
7519;SDS011;3801;48.876;10.184;2022-12-10T07:53:15;30.40;;;14.13;;
7519;SDS011;3801;48.876;10.184;2022-12-10T07:58:19;30.93;;;15.30;;
7519;SDS011;3801;48.876;10.184;2022-12-10T08:03:22;29.57;;;15.23;;
7519;SDS011;3801;48.876;10.184;2022-12-10T08:08:28;34.00;;;16.73;;
7519;SDS011;3801;48.876;10.184;2022-12-10T08:13:31;26.30;;;14.53;;
7519;SDS011;3801;48.876;10.184;2022-12-10T08:18:36;29.13;;;16.47;;
7519;SDS011;3801;48.876;10.184;2022-12-10T08:23:41;30.20;;;16.23;;
7519;SDS011;3801;48.876;10.184;2022-12-10T08:28:44;30.87;;;18.00;;
7519;SDS011;3801;48.876;10.184;2022-12-10T08:33:52;28.37;;;15.37;;
7519;SDS011;3801;48.876;10.184;2022-12-10T08:38:57;26.50;;;14.80;;
7519;SDS011;3801;48.876;10.184;2022-12-10T08:44:01;41.40;;;21.30;;
7519;SDS011;3801;48.876;10.184;2022-12-10T08:49:05;31.93;;;18.20;;
7519;SDS011;3801;48.876;10.184;2022-12-10T08:54:13;29.90;;;16.87;;
7519;SDS011;3801;48.876;10.184;2022-12-10T08:59:17;30.90;;;15.97;;
7519;SDS011;3801;48.876;10.184;2022-12-10T09:04:20;29.37;;;16.00;;
7519;SDS011;3801;48.876;10.184;2022-12-10T09:09:25;27.50;;;15.37;;
7519;SDS011;3801;48.876;10.184;2022-12-10T09:14:29;34.80;;;18.37;;
7519;SDS011;3801;48.876;10.184;2022-12-10T09:19:33;31.13;;;17.27;;
7519;SDS011;3801;48.876;10.184;2022-12-10T09:24:38;29.97;;;16.40;;
7519;SDS011;3801;48.876;10.184;2022-12-10T09:29:41;28.83;;;16.60;;
7519;SDS011;3801;48.876;10.184;2022-12-10T09:34:45;26.30;;;15.80;;
7519;SDS011;3801;48.876;10.184;2022-12-10T09:39:50;30.33;;;17.23;;
7519;SDS011;3801;48.876;10.184;2022-12-10T09:44:56;34.93;;;19.17;;
7519;SDS011;3801;48.876;10.184;2022-12-10T09:50:03;34.23;;;17.90;;
7519;SDS011;3801;48.876;10.184;2022-12-10T09:55:17;34.13;;;17.40;;
7519;SDS011;3801;48.876;10.184;2022-12-10T10:00:22;31.30;;;16.80;;
7519;SDS011;3801;48.876;10.184;2022-12-10T10:05:27;34.07;;;18.00;;
7519;SDS011;3801;48.876;10.184;2022-12-10T10:10:33;30.63;;;16.60;;
7519;SDS011;3801;48.876;10.184;2022-12-10T10:15:40;32.47;;;18.60;;
7519;SDS011;3801;48.876;10.184;2022-12-10T10:20:43;32.33;;;16.93;;
7519;SDS011;3801;48.876;10.184;2022-12-10T10:25:49;34.67;;;18.40;;
7519;SDS011;3801;48.876;10.184;2022-12-10T10:30:52;36.27;;;20.20;;
7519;SDS011;3801;48.876;10.184;2022-12-10T10:35:57;37.67;;;18.77;;
7519;SDS011;3801;48.876;10.184;2022-12-10T10:41:02;31.33;;;16.30;;
7519;SDS011;3801;48.876;10.184;2022-12-10T10:46:10;30.97;;;18.17;;
7519;SDS011;3801;48.876;10.184;2022-12-10T10:51:15;34.30;;;16.93;;
7519;SDS011;3801;48.876;10.184;2022-12-10T10:56:24;30.90;;;17.27;;
7519;SDS011;3801;48.876;10.184;2022-12-10T11:01:42;35.50;;;17.70;;
7519;SDS011;3801;48.876;10.184;2022-12-10T11:06:46;33.30;;;16.97;;
7519;SDS011;3801;48.876;10.184;2022-12-10T11:11:51;35.00;;;16.80;;
7519;SDS011;3801;48.876;10.184;2022-12-10T11:17:00;30.07;;;17.70;;
7519;SDS011;3801;48.876;10.184;2022-12-10T11:22:14;33.33;;;18.23;;
7519;SDS011;3801;48.876;10.184;2022-12-10T11:27:25;27.73;;;15.87;;
7519;SDS011;3801;48.876;10.184;2022-12-10T11:37:56;30.43;;;15.00;;
7519;SDS011;3801;48.876;10.184;2022-12-10T11:48:31;28.03;;;15.83;;
7519;SDS011;3801;48.876;10.184;2022-12-10T11:53:47;28.67;;;15.90;;
7519;SDS011;3801;48.876;10.184;2022-12-10T11:58:57;27.30;;;16.90;;
7519;SDS011;3801;48.876;10.184;2022-12-10T12:04:10;33.83;;;18.10;;
7519;SDS011;3801;48.876;10.184;2022-12-10T12:09:21;30.47;;;19.17;;
7519;SDS011;3801;48.876;10.184;2022-12-10T12:14:29;26.57;;;15.27;;
7519;SDS011;3801;48.876;10.184;2022-12-10T12:19:36;26.43;;;16.03;;
7519;SDS011;3801;48.876;10.184;2022-12-10T12:24:41;28.90;;;17.90;;
7519;SDS011;3801;48.876;10.184;2022-12-10T12:29:49;38.27;;;19.90;;
7519;SDS011;3801;48.876;10.184;2022-12-10T12:34:56;33.10;;;18.47;;
7519;SDS011;3801;48.876;10.184;2022-12-10T12:40:02;35.83;;;18.43;;
7519;SDS011;3801;48.876;10.184;2022-12-10T12:45:10;29.30;;;15.97;;
7519;SDS011;3801;48.876;10.184;2022-12-10T12:50:25;33.10;;;17.93;;
7519;SDS011;3801;48.876;10.184;2022-12-10T12:55:32;33.83;;;18.10;;
7519;SDS011;3801;48.876;10.184;2022-12-10T13:00:37;34.27;;;17.57;;
7519;SDS011;3801;48.876;10.184;2022-12-10T13:05:44;33.70;;;17.63;;
7519;SDS011;3801;48.876;10.184;2022-12-10T13:10:50;33.90;;;17.40;;
7519;SDS011;3801;48.876;10.184;2022-12-10T13:15:55;34.47;;;18.40;;
7519;SDS011;3801;48.876;10.184;2022-12-10T13:26:26;36.83;;;19.57;;
7519;SDS011;3801;48.876;10.184;2022-12-10T13:31:34;36.13;;;19.07;;
7519;SDS011;3801;48.876;10.184;2022-12-10T13:47:47;34.10;;;17.80;;
7519;SDS011;3801;48.876;10.184;2022-12-10T13:52:54;34.73;;;19.37;;
7519;SDS011;3801;48.876;10.184;2022-12-10T13:58:09;44.57;;;22.07;;
7519;SDS011;3801;48.876;10.184;2022-12-10T14:03:41;35.57;;;20.40;;
7519;SDS011;3801;48.876;10.184;2022-12-10T14:08:52;47.43;;;22.60;;
7519;SDS011;3801;48.876;10.184;2022-12-10T14:13:57;41.67;;;20.33;;
7519;SDS011;3801;48.876;10.184;2022-12-10T14:19:04;41.63;;;22.67;;
7519;SDS011;3801;48.876;10.184;2022-12-10T14:29:27;41.90;;;21.73;;
7519;SDS011;3801;48.876;10.184;2022-12-10T14:34:32;36.57;;;19.37;;
7519;SDS011;3801;48.876;10.184;2022-12-10T14:39:37;35.50;;;18.47;;
7519;SDS011;3801;48.876;10.184;2022-12-10T14:44:41;35.73;;;18.43;;
7519;SDS011;3801;48.876;10.184;2022-12-10T14:49:48;35.27;;;18.40;;
7519;SDS011;3801;48.876;10.184;2022-12-10T14:54:51;34.23;;;17.13;;
7519;SDS011;3801;48.876;10.184;2022-12-10T14:59:57;30.80;;;15.90;;
7519;SDS011;3801;48.876;10.184;2022-12-10T15:05:05;35.37;;;17.37;;
7519;SDS011;3801;48.876;10.184;2022-12-10T15:10:14;34.60;;;18.00;;
7519;SDS011;3801;48.876;10.184;2022-12-10T15:15:22;39.57;;;19.30;;
7519;SDS011;3801;48.876;10.184;2022-12-10T15:20:29;32.73;;;16.70;;
7519;SDS011;3801;48.876;10.184;2022-12-10T15:25:40;34.93;;;17.70;;
7519;SDS011;3801;48.876;10.184;2022-12-10T15:30:44;34.30;;;18.63;;
7519;SDS011;3801;48.876;10.184;2022-12-10T15:35:55;34.83;;;17.77;;
7519;SDS011;3801;48.876;10.184;2022-12-10T15:46:19;29.97;;;16.53;;
7519;SDS011;3801;48.876;10.184;2022-12-10T15:51:24;30.53;;;16.87;;
7519;SDS011;3801;48.876;10.184;2022-12-10T15:56:28;27.63;;;15.37;;
7519;SDS011;3801;48.876;10.184;2022-12-10T16:01:32;29.90;;;16.23;;
7519;SDS011;3801;48.876;10.184;2022-12-10T16:06:37;26.87;;;14.83;;
7519;SDS011;3801;48.876;10.184;2022-12-10T16:11:41;31.97;;;15.53;;
7519;SDS011;3801;48.876;10.184;2022-12-10T16:16:44;47.97;;;23.17;;
7519;SDS011;3801;48.876;10.184;2022-12-10T16:21:49;34.00;;;17.03;;
7519;SDS011;3801;48.876;10.184;2022-12-10T16:26:53;32.03;;;16.93;;
7519;SDS011;3801;48.876;10.184;2022-12-10T16:31:56;33.67;;;17.10;;
7519;SDS011;3801;48.876;10.184;2022-12-10T16:37:01;33.90;;;16.50;;
7519;SDS011;3801;48.876;10.184;2022-12-10T16:42:05;29.93;;;16.50;;
7519;SDS011;3801;48.876;10.184;2022-12-10T16:47:10;32.87;;;17.10;;
7519;SDS011;3801;48.876;10.184;2022-12-10T16:52:15;32.83;;;16.40;;
7519;SDS011;3801;48.876;10.184;2022-12-10T16:57:18;30.93;;;17.30;;
7519;SDS011;3801;48.876;10.184;2022-12-10T17:02:22;32.87;;;17.57;;
7519;SDS011;3801;48.876;10.184;2022-12-10T17:07:27;34.53;;;17.20;;
7519;SDS011;3801;48.876;10.184;2022-12-10T17:12:30;30.07;;;15.57;;
7519;SDS011;3801;48.876;10.184;2022-12-10T17:17:34;26.13;;;15.00;;
7519;SDS011;3801;48.876;10.184;2022-12-10T17:22:39;34.57;;;18.10;;
7519;SDS011;3801;48.876;10.184;2022-12-10T17:27:43;32.07;;;16.43;;
7519;SDS011;3801;48.876;10.184;2022-12-10T17:32:46;29.63;;;16.43;;
7519;SDS011;3801;48.876;10.184;2022-12-10T17:37:51;30.87;;;16.53;;
7519;SDS011;3801;48.876;10.184;2022-12-10T17:42:57;29.40;;;15.47;;
7519;SDS011;3801;48.876;10.184;2022-12-10T17:48:00;30.47;;;15.27;;
7519;SDS011;3801;48.876;10.184;2022-12-10T17:53:06;30.57;;;15.50;;
7519;SDS011;3801;48.876;10.184;2022-12-10T17:58:11;26.00;;;15.00;;
7519;SDS011;3801;48.876;10.184;2022-12-10T18:03:15;30.07;;;15.20;;
7519;SDS011;3801;48.876;10.184;2022-12-10T18:08:21;27.73;;;14.50;;
7519;SDS011;3801;48.876;10.184;2022-12-10T18:13:25;24.33;;;13.53;;
7519;SDS011;3801;48.876;10.184;2022-12-10T18:18:29;23.70;;;13.23;;
7519;SDS011;3801;48.876;10.184;2022-12-10T18:23:34;21.37;;;11.43;;
7519;SDS011;3801;48.876;10.184;2022-12-10T18:28:45;27.20;;;13.10;;
7519;SDS011;3801;48.876;10.184;2022-12-10T18:33:51;23.43;;;12.37;;
7519;SDS011;3801;48.876;10.184;2022-12-10T18:38:57;24.70;;;12.93;;
7519;SDS011;3801;48.876;10.184;2022-12-10T18:44:01;23.13;;;12.80;;
7519;SDS011;3801;48.876;10.184;2022-12-10T18:49:04;25.37;;;13.93;;
7519;SDS011;3801;48.876;10.184;2022-12-10T18:54:10;23.27;;;12.33;;
7519;SDS011;3801;48.876;10.184;2022-12-10T18:59:15;25.43;;;12.80;;
7519;SDS011;3801;48.876;10.184;2022-12-10T19:04:18;22.40;;;12.37;;
7519;SDS011;3801;48.876;10.184;2022-12-10T19:09:24;24.53;;;13.23;;
7519;SDS011;3801;48.876;10.184;2022-12-10T19:14:33;29.93;;;14.70;;
7519;SDS011;3801;48.876;10.184;2022-12-10T19:19:37;24.53;;;13.13;;
7519;SDS011;3801;48.876;10.184;2022-12-10T19:24:42;27.73;;;14.73;;
7519;SDS011;3801;48.876;10.184;2022-12-10T19:29:45;35.60;;;16.83;;
7519;SDS011;3801;48.876;10.184;2022-12-10T19:34:48;33.80;;;16.70;;
7519;SDS011;3801;48.876;10.184;2022-12-10T19:39:53;23.20;;;12.90;;
7519;SDS011;3801;48.876;10.184;2022-12-10T19:44:57;24.37;;;12.87;;
7519;SDS011;3801;48.876;10.184;2022-12-10T19:50:01;20.77;;;11.43;;
7519;SDS011;3801;48.876;10.184;2022-12-10T19:55:07;30.23;;;14.23;;
7519;SDS011;3801;48.876;10.184;2022-12-10T20:00:13;26.60;;;12.93;;
7519;SDS011;3801;48.876;10.184;2022-12-10T20:05:17;25.93;;;13.80;;
7519;SDS011;3801;48.876;10.184;2022-12-10T20:10:24;28.80;;;13.57;;
7519;SDS011;3801;48.876;10.184;2022-12-10T20:15:27;29.13;;;13.93;;
7519;SDS011;3801;48.876;10.184;2022-12-10T20:20:31;26.40;;;13.47;;
7519;SDS011;3801;48.876;10.184;2022-12-10T20:25:36;29.47;;;14.17;;
7519;SDS011;3801;48.876;10.184;2022-12-10T20:30:40;24.83;;;13.17;;
7519;SDS011;3801;48.876;10.184;2022-12-10T20:35:44;26.80;;;13.33;;
7519;SDS011;3801;48.876;10.184;2022-12-10T20:40:49;23.23;;;12.93;;
7519;SDS011;3801;48.876;10.184;2022-12-10T20:45:52;24.77;;;13.10;;
7519;SDS011;3801;48.876;10.184;2022-12-10T20:50:56;21.33;;;13.20;;
7519;SDS011;3801;48.876;10.184;2022-12-10T20:56:01;23.83;;;13.10;;
7519;SDS011;3801;48.876;10.184;2022-12-10T21:01:04;25.87;;;13.50;;
7519;SDS011;3801;48.876;10.184;2022-12-10T21:06:09;23.23;;;12.47;;
7519;SDS011;3801;48.876;10.184;2022-12-10T21:11:15;29.87;;;15.13;;
7519;SDS011;3801;48.876;10.184;2022-12-10T21:16:19;23.67;;;12.53;;
7519;SDS011;3801;48.876;10.184;2022-12-10T21:21:23;23.33;;;12.30;;
7519;SDS011;3801;48.876;10.184;2022-12-10T21:26:29;24.73;;;12.23;;
7519;SDS011;3801;48.876;10.184;2022-12-10T21:31:37;24.43;;;12.50;;
7519;SDS011;3801;48.876;10.184;2022-12-10T21:36:41;22.30;;;12.83;;
7519;SDS011;3801;48.876;10.184;2022-12-10T21:41:46;25.63;;;12.23;;
7519;SDS011;3801;48.876;10.184;2022-12-10T21:47:07;23.53;;;12.00;;
7519;SDS011;3801;48.876;10.184;2022-12-10T21:52:14;25.37;;;15.10;;
7519;SDS011;3801;48.876;10.184;2022-12-10T21:57:19;29.67;;;15.33;;
7519;SDS011;3801;48.876;10.184;2022-12-10T22:02:23;26.73;;;14.57;;
7519;SDS011;3801;48.876;10.184;2022-12-10T22:07:27;21.47;;;12.67;;
7519;SDS011;3801;48.876;10.184;2022-12-10T22:12:32;25.53;;;13.90;;
7519;SDS011;3801;48.876;10.184;2022-12-10T22:17:35;26.57;;;13.57;;
7519;SDS011;3801;48.876;10.184;2022-12-10T22:22:39;26.83;;;13.27;;
7519;SDS011;3801;48.876;10.184;2022-12-10T22:27:44;29.83;;;14.33;;
7519;SDS011;3801;48.876;10.184;2022-12-10T22:32:49;24.83;;;12.77;;
7519;SDS011;3801;48.876;10.184;2022-12-10T22:37:53;21.77;;;12.20;;
7519;SDS011;3801;48.876;10.184;2022-12-10T22:42:58;29.83;;;14.43;;
7519;SDS011;3801;48.876;10.184;2022-12-10T22:48:21;26.57;;;12.07;;
7519;SDS011;3801;48.876;10.184;2022-12-10T22:53:25;24.47;;;13.50;;
7519;SDS011;3801;48.876;10.184;2022-12-10T22:58:30;22.33;;;12.37;;
7519;SDS011;3801;48.876;10.184;2022-12-10T23:03:33;24.33;;;12.40;;
7519;SDS011;3801;48.876;10.184;2022-12-10T23:08:37;21.83;;;11.33;;
7519;SDS011;3801;48.876;10.184;2022-12-10T23:13:43;24.57;;;13.53;;
7519;SDS011;3801;48.876;10.184;2022-12-10T23:18:47;21.67;;;12.07;;
7519;SDS011;3801;48.876;10.184;2022-12-10T23:23:51;20.57;;;11.70;;
7519;SDS011;3801;48.876;10.184;2022-12-10T23:28:57;20.27;;;10.30;;
7519;SDS011;3801;48.876;10.184;2022-12-10T23:34:01;17.33;;;9.47;;
7519;SDS011;3801;48.876;10.184;2022-12-10T23:39:04;21.33;;;10.83;;
7519;SDS011;3801;48.876;10.184;2022-12-10T23:44:09;20.10;;;10.87;;
7519;SDS011;3801;48.876;10.184;2022-12-10T23:49:12;16.33;;;9.50;;
7519;SDS011;3801;48.876;10.184;2022-12-10T23:54:16;19.50;;;10.00;;
7519;SDS011;3801;48.876;10.184;2022-12-10T23:59:21;15.47;;;8.70;;
